Startpagina
METAR-TAF:

METAR-TAF

Vliegvelden :

Internationale luchthaven van Bahrein

Bahrein, Bahrein

breedte: 26-16N, lengte: 050-39E, hoogte: 2 m

Actueel weer

Dit bericht is 28 minuten geleden gemaakt, om 05:00 UTC
Wind 4 kt uit het westen, variërend tussen het westzuidwesten en het westnoordwesten
Temperatuur 33°C
Vochtigheid 32%
Druk 1010 hPa
Zicht 10 km of meer
geen wolken onder 1500 m en geen cumulonimbus

METAR: OBBI 210500Z 27004KT 240V300 CAVOK 33/14 Q1010 NOSIG

Tijdstip: 08:28 (05:28 UTC)

Verwachting

Dit bericht is 6 uur en het 28 minuten geleden gemaakt, om 23:00 UTC
Verwachting geldig van 21 om 00 UTC tot 22 om 06 UTC
Wind 5 kt uit variabele richting
Zicht 10 km of meer
geen wolken onder 1500 m en geen cumulonimbus
Wijzigt naar
van 21 om 06 UTC tot 21 om 08 UTC
Wind 10 kt uit het noordnoordoosten
Wijzigt naar
van 21 om 16 UTC tot 21 om 18 UTC
Wind 5 kt uit variabele richting

TAF: OBBI 202300Z 2100/2206 VRB05KT CAVOK BECMG 2106/2108 03010KT BECMG 2116/2118 VRB05KT

Waarnemingen en weersverwachtingen van meer dan 4000 vliegvelden (METAR en TAF).

De beschikbare stations zijn de gele en rode punten op de kaart.

Ga met uw muis naar het station om de naam te zien.

Klik dan om waarnemingen en weersverwachtingen te zien.

kaart wijzigen: klik op de groene knoppen met een zwart kruis om in te zoomen, op de groene knop met een streepje om uit te zoomen of op de groene pijlen voor aangrenzende kaarten.


METAR-TAF: